Time;durP1;ratioP1;P1;durP2;ratioP2;P2;SDS_P1;SDS_P2;PMS_P1;PMS_P2;Temp;Humidity;BMP_temperature;BMP_pressure;BME280_temperature;BME280_humidity;BME280_pressure;Samples;Min_cycle;Max_cycle;Signal;HPM_P1;HPM_P2
2023/01/06 00:02:56;;;;;;;3.00;2.90;;;12.50;99.90;;;;;;10384138;28;20249;-82
2023/01/06 00:07:59;;;;;;;2.87;2.77;;;12.50;99.90;;;;;;10393878;28;20218;-83
2023/01/06 00:13:01;;;;;;;3.27;2.73;;;12.50;99.90;;;;;;10411625;28;20242;-82
2023/01/06 00:18:04;;;;;;;2.80;2.70;;;12.60;99.90;;;;;;10387400;28;20195;-81
2023/01/06 00:23:08;;;;;;;2.87;2.77;;;12.60;99.90;;;;;;10376257;28;20214;-82
2023/01/06 00:28:10;;;;;;;2.97;2.87;;;12.60;99.90;;;;;;10421481;28;20226;-82
2023/01/06 00:33:14;;;;;;;2.40;2.30;;;12.70;99.90;;;;;;10390823;28;20361;-81
2023/01/06 00:38:16;;;;;;;2.57;2.47;;;12.70;99.90;;;;;;10402137;28;20190;-82
2023/01/06 00:43:18;;;;;;;5.53;5.13;;;12.70;99.90;;;;;;10399435;28;20225;-81
2023/01/06 00:48:22;;;;;;;2.83;2.63;;;12.70;99.90;;;;;;10422367;28;20225;-82
2023/01/06 00:53:24;;;;;;;3.10;2.90;;;12.80;99.90;;;;;;10376019;28;20305;-82
2023/01/06 00:58:30;;;;;;;2.57;2.37;;;12.80;99.90;;;;;;10401522;28;20201;-82
2023/01/06 01:03:34;;;;;;;2.57;2.47;;;12.70;99.90;;;;;;10390346;28;20231;-82
2023/01/06 01:08:36;;;;;;;2.80;2.60;;;12.70;99.90;;;;;;10426248;28;20333;-83
2023/01/06 01:13:38;;;;;;;7.87;6.67;;;12.60;99.90;;;;;;10424590;28;20205;-82
2023/01/06 01:18:42;;;;;;;3.70;3.40;;;12.60;99.90;;;;;;10462510;28;20191;-82
2023/01/06 01:23:44;;;;;;;4.73;3.63;;;12.60;99.90;;;;;;10420031;28;20245;-81
2023/01/06 01:28:47;;;;;;;2.80;2.50;;;12.50;99.90;;;;;;10406735;28;20282;-81
2023/01/06 01:33:51;;;;;;;2.90;2.57;;;12.50;99.90;;;;;;10393457;23;20593;-81
2023/01/06 01:38:53;;;;;;;2.60;2.50;;;12.50;99.90;;;;;;10352608;28;20230;-81
2023/01/06 01:43:58;;;;;;;2.57;2.47;;;12.50;99.90;;;;;;10341989;28;20273;-81
2023/01/06 01:49:06;;;;;;;2.67;2.57;;;12.50;99.90;;;;;;10343514;28;20300;-81
2023/01/06 01:54:12;;;;;;;2.40;2.30;;;12.50;99.90;;;;;;10369260;28;20211;-80
2023/01/06 01:59:17;;;;;;;2.53;2.43;;;12.40;99.90;;;;;;10334479;28;20215;-80
2023/01/06 02:04:22;;;;;;;2.80;2.60;;;12.50;99.90;;;;;;10310853;28;20278;-81
2023/01/06 02:09:31;;;;;;;2.93;2.73;;;12.50;99.90;;;;;;10350984;28;20222;-80
2023/01/06 02:14:33;;;;;;;3.40;3.20;;;12.60;99.90;;;;;;10343176;28;20230;-80
2023/01/06 02:20:23;;;;;;;5.07;2.80;;;12.60;99.90;;;;;;10344661;28;20584;-80
2023/01/06 02:25:51;;;;;;;2.70;2.60;;;12.60;99.90;;;;;;10329714;28;20647;-83
2023/01/06 02:31:32;;;;;;;2.90;2.60;;;12.60;99.90;;;;;;10332140;28;20258;-80
2023/01/06 02:36:43;;;;;;;2.73;2.57;;;12.60;99.90;;;;;;10285507;28;20753;-80
2023/01/06 02:42:00;;;;;;;2.50;2.40;;;12.70;99.90;;;;;;10334867;28;20219;-81
2023/01/06 02:47:13;;;;;;;2.50;2.40;;;12.70;99.90;;;;;;10338894;28;20195;-81
2023/01/06 02:52:24;;;;;;;2.53;2.40;;;12.70;99.90;;;;;;10359780;28;20242;-81
2023/01/06 02:57:34;;;;;;;2.57;2.47;;;12.70;99.90;;;;;;10342269;28;20242;-80
2023/01/06 03:02:42;;;;;;;2.50;2.40;;;12.80;99.90;;;;;;10344358;28;20214;-82
2023/01/06 03:07:47;;;;;;;2.50;2.40;;;12.80;99.90;;;;;;10329399;28;20195;-82
2023/01/06 03:12:54;;;;;;;2.70;2.60;;;12.80;99.90;;;;;;10329683;28;20219;-82
2023/01/06 03:17:59;;;;;;;3.77;3.50;;;12.80;99.90;;;;;;10325830;28;20215;-82
2023/01/06 03:23:01;;;;;;;3.10;2.90;;;12.80;99.90;;;;;;10344325;28;20223;-81
2023/01/06 03:28:04;;;;;;;2.43;2.33;;;12.80;99.90;;;;;;10338524;28;20298;-80
2023/01/06 03:33:17;;;;;;;2.57;2.47;;;12.80;99.90;;;;;;10340215;28;20219;-81
2023/01/06 03:38:31;;;;;;;2.50;2.40;;;12.80;99.90;;;;;;10340473;28;20223;-81
2023/01/06 03:43:40;;;;;;;2.70;2.50;;;12.70;99.90;;;;;;10331612;28;20223;-81
2023/01/06 03:48:55;;;;;;;2.20;2.10;;;12.70;99.90;;;;;;10338403;28;20202;-81
2023/01/06 03:54:04;;;;;;;2.50;2.40;;;12.60;99.90;;;;;;10323800;28;20207;-80
2023/01/06 03:59:12;;;;;;;3.80;3.60;;;12.60;99.90;;;;;;10324316;28;20214;-80
2023/01/06 04:04:16;;;;;;;2.90;2.80;;;12.50;99.90;;;;;;10305558;28;20702;-81
2023/01/06 04:09:19;;;;;;;3.03;2.93;;;12.50;99.90;;;;;;10300918;28;20198;-81
2023/01/06 04:14:21;;;;;;;2.80;2.60;;;12.50;99.90;;;;;;10324315;28;20214;-80
2023/01/06 04:19:25;;;;;;;3.00;2.90;;;12.40;99.90;;;;;;10319202;28;20215;-80
2023/01/06 04:24:29;;;;;;;2.90;2.80;;;12.40;99.90;;;;;;10341892;28;20297;-81
2023/01/06 04:29:32;;;;;;;2.67;2.57;;;12.30;99.90;;;;;;10336896;28;20278;-80
2023/01/06 04:34:36;;;;;;;2.80;2.63;;;12.30;99.90;;;;;;10336887;28;20445;-80
2023/01/06 04:39:38;;;;;;;2.97;2.87;;;12.30;99.90;;;;;;10324341;28;20254;-80
2023/01/06 04:44:41;;;;;;;2.50;2.40;;;12.30;99.90;;;;;;10337440;28;20785;-81
2023/01/06 04:49:44;;;;;;;3.33;3.13;;;12.20;99.90;;;;;;10345729;28;20195;-81
2023/01/06 04:54:46;;;;;;;2.50;2.40;;;12.10;99.90;;;;;;10337163;28;20221;-80
2023/01/06 04:59:48;;;;;;;3.40;3.20;;;12.10;99.90;;;;;;10342273;28;20588;-79
2023/01/06 05:04:52;;;;;;;3.50;3.30;;;12.00;99.90;;;;;;10344437;28;20230;-79
2023/01/06 05:09:54;;;;;;;4.03;3.73;;;12.00;99.90;;;;;;10338074;28;20191;-80
2023/01/06 05:14:56;;;;;;;2.70;2.60;;;11.90;99.90;;;;;;10323936;28;20223;-80
2023/01/06 05:19:59;;;;;;;4.47;4.07;;;12.00;99.90;;;;;;10337719;28;20298;-81
2023/01/06 05:25:01;;;;;;;3.87;3.60;;;12.00;99.90;;;;;;10341907;28;20246;-81
2023/01/06 05:30:04;;;;;;;4.37;4.07;;;12.00;99.90;;;;;;10346991;28;20194;-80
2023/01/06 05:35:09;;;;;;;4.10;3.90;;;12.10;99.90;;;;;;10343896;28;20273;-79
2023/01/06 05:40:11;;;;;;;3.50;3.30;;;12.00;99.90;;;;;;10340561;28;20210;-79
2023/01/06 05:45:13;;;;;;;4.33;3.90;;;12.00;99.90;;;;;;10318855;28;20226;-78
2023/01/06 05:50:17;;;;;;;3.50;3.30;;;12.00;99.90;;;;;;10337607;28;20190;-79
2023/01/06 05:55:19;;;;;;;3.80;3.50;;;12.00;99.90;;;;;;10335054;28;20199;-82
2023/01/06 06:00:22;;;;;;;3.63;3.43;;;12.10;99.90;;;;;;10333964;28;20302;-79
2023/01/06 06:05:26;;;;;;;3.67;3.47;;;12.20;99.90;;;;;;10372037;28;20221;-80
2023/01/06 06:10:28;;;;;;;3.20;3.00;;;12.20;99.90;;;;;;10350369;28;20601;-81
2023/01/06 06:15:30;;;;;;;3.07;2.87;;;12.20;99.90;;;;;;10360190;28;20225;-81
2023/01/06 06:20:34;;;;;;;2.97;2.77;;;12.20;99.90;;;;;;10332221;28;20281;-81
2023/01/06 06:25:36;;;;;;;3.00;2.80;;;12.20;99.90;;;;;;10346162;28;20242;-81
2023/01/06 06:30:38;;;;;;;2.77;2.67;;;12.20;99.90;;;;;;10348696;28;20202;-82
2023/01/06 06:35:41;;;;;;;3.10;2.90;;;12.20;99.90;;;;;;10347923;28;20206;-81
2023/01/06 06:40:44;;;;;;;3.20;3.00;;;12.20;99.90;;;;;;10333238;28;20591;-82
2023/01/06 06:45:47;;;;;;;3.73;2.17;;;12.20;99.90;;;;;;10340609;28;20196;-81
2023/01/06 06:50:57;;;;;;;2.40;2.30;;;12.20;99.90;;;;;;10369940;28;20238;-82
2023/01/06 06:55:59;;;;;;;2.70;2.53;;;12.20;99.90;;;;;;10359163;28;20357;-81
2023/01/06 07:01:04;;;;;;;3.07;2.90;;;12.20;99.90;;;;;;10353371;28;20832;-81
2023/01/06 07:06:10;;;;;;;3.00;2.90;;;12.20;99.90;;;;;;10353562;28;20268;-81
2023/01/06 07:11:12;;;;;;;3.00;2.90;;;12.20;99.90;;;;;;10352334;28;20223;-80
2023/01/06 07:16:15;;;;;;;2.70;2.60;;;12.20;99.90;;;;;;10363637;28;20230;-81
2023/01/06 07:21:18;;;;;;;2.53;2.43;;;12.20;99.90;;;;;;10353582;28;20219;-81
2023/01/06 07:26:20;;;;;;;2.70;2.50;;;12.30;99.90;;;;;;10335907;28;20286;-81
2023/01/06 07:31:22;;;;;;;2.37;2.27;;;12.30;99.90;;;;;;10340118;23;20221;-80
2023/01/06 07:36:26;;;;;;;3.50;3.20;;;12.30;99.90;;;;;;10375808;28;20201;-81
2023/01/06 07:41:28;;;;;;;2.43;2.33;;;12.30;99.90;;;;;;10375070;28;20214;-79
2023/01/06 07:46:33;;;;;;;2.80;2.70;;;12.40;99.90;;;;;;10364812;28;20227;-80
2023/01/06 07:51:37;;;;;;;2.90;2.70;;;12.40;99.90;;;;;;10373745;28;20729;-79
2023/01/06 07:56:39;;;;;;;2.93;2.83;;;12.50;99.90;;;;;;10370881;28;20297;-78
2023/01/06 08:01:41;;;;;;;3.53;3.33;;;12.50;99.90;;;;;;10338391;28;20234;-79
2023/01/06 08:06:44;;;;;;;3.93;3.00;;;12.60;99.90;;;;;;10343277;28;20191;-79
2023/01/06 08:11:46;;;;;;;3.00;2.83;;;12.60;99.90;;;;;;10368565;28;20214;-79
2023/01/06 08:16:48;;;;;;;3.50;3.40;;;12.60;99.90;;;;;;10357303;28;20207;-79
2023/01/06 08:21:51;;;;;;;3.60;3.50;;;12.70;99.90;;;;;;10344645;28;20234;-81
2023/01/06 08:26:53;;;;;;;3.30;3.20;;;12.70;99.90;;;;;;10371805;28;20286;-80
2023/01/06 08:31:55;;;;;;;3.60;3.40;;;12.60;99.90;;;;;;10359465;28;20227;-80
2023/01/06 08:36:59;;;;;;;3.80;3.60;;;12.60;99.90;;;;;;10370843;28;20215;-81
2023/01/06 08:42:01;;;;;;;3.90;3.63;;;12.60;99.90;;;;;;10372293;28;20671;-80
2023/01/06 08:47:03;;;;;;;3.90;3.50;;;12.50;99.90;;;;;;10375489;28;20214;-81
2023/01/06 08:52:07;;;;;;;3.93;3.67;;;12.40;99.90;;;;;;10398728;28;20206;-81
2023/01/06 08:57:10;;;;;;;3.90;3.60;;;12.40;99.90;;;;;;10399517;28;20203;-81
2023/01/06 09:02:12;;;;;;;2.97;2.87;;;12.40;99.90;;;;;;10396031;28;20210;-81
2023/01/06 09:07:15;;;;;;;2.87;2.77;;;12.40;99.90;;;;;;10397693;28;20187;-81
2023/01/06 09:12:17;;;;;;;3.03;2.80;;;12.30;99.90;;;;;;10387780;28;20260;-79
2023/01/06 09:17:19;;;;;;;2.43;2.33;;;12.30;99.90;;;;;;10370405;28;20218;-78
2023/01/06 09:22:23;;;;;;;2.93;2.83;;;12.20;99.90;;;;;;10354810;28;20245;-79
2023/01/06 09:27:25;;;;;;;2.70;2.60;;;12.20;99.90;;;;;;10337867;28;20197;-79
2023/01/06 09:32:27;;;;;;;2.50;2.40;;;12.30;99.90;;;;;;10341637;28;20227;-79
2023/01/06 09:37:30;;;;;;;2.13;2.03;;;12.30;99.90;;;;;;10342566;28;20223;-80
2023/01/06 09:42:45;;;;;;;3.50;2.30;;;12.50;99.90;;;;;;10366001;28;20255;-79
2023/01/06 09:47:51;;;;;;;2.40;2.30;;;12.60;99.90;;;;;;10350555;28;20257;-80
2023/01/06 09:52:58;;;;;;;3.33;1.50;;;12.70;99.90;;;;;;10348219;28;20218;-80
2023/01/06 09:58:05;;;;;;;1.87;1.77;;;12.80;99.90;;;;;;10348862;28;20214;-79
2023/01/06 10:03:12;;;;;;;1.60;1.50;;;12.90;99.90;;;;;;10361773;28;20271;-80
2023/01/06 10:08:24;;;;;;;1.53;1.53;;;13.10;99.90;;;;;;10327112;28;20206;-79
2023/01/06 10:13:39;;;;;;;1.70;1.63;;;13.20;99.90;;;;;;10369077;28;20225;-79
2023/01/06 10:18:48;;;;;;;1.50;1.50;;;13.30;99.90;;;;;;10343278;28;20209;-79
2023/01/06 10:24:22;;;;;;;1.50;1.50;;;13.20;99.90;;;;;;10332902;28;20697;-80
2023/01/06 10:29:30;;;;;;;1.60;1.50;;;13.20;99.90;;;;;;10383888;28;20290;-80
2023/01/06 10:34:34;;;;;;;2.00;1.80;;;13.20;99.90;;;;;;10352709;28;20270;-81
2023/01/06 10:39:43;;;;;;;2.10;1.90;;;13.30;99.90;;;;;;10382992;28;20257;-79
2023/01/06 10:44:45;;;;;;;2.70;1.50;;;13.40;99.90;;;;;;10361716;28;20215;-79
2023/01/06 10:49:47;;;;;;;1.60;1.50;;;13.40;99.90;;;;;;10391055;28;20262;-79
2023/01/06 10:54:53;;;;;;;4.63;4.23;;;13.50;99.90;;;;;;10356952;28;20219;-79
2023/01/06 11:00:15;;;;;;;2.10;1.90;;;13.50;99.90;;;;;;10347392;28;20226;-80
2023/01/06 11:05:20;;;;;;;2.17;1.97;;;13.50;99.90;;;;;;10357225;28;20211;-79
2023/01/06 11:10:34;;;;;;;1.60;1.50;;;13.40;99.90;;;;;;10321148;28;20440;-80
2023/01/06 11:15:40;;;;;;;1.30;1.20;;;13.50;99.90;;;;;;10334485;28;20235;-80
2023/01/06 11:20:42;;;;;;;1.80;1.70;;;13.50;99.90;;;;;;10305847;28;20219;-80
2023/01/06 11:26:01;;;;;;;1.33;1.33;;;13.60;99.90;;;;;;10323625;28;20303;-80
2023/01/06 11:31:06;;;;;;;1.20;1.20;;;13.70;99.90;;;;;;10309876;28;20274;-80
2023/01/06 11:36:11;;;;;;;1.70;1.37;;;13.70;99.90;;;;;;10324940;28;20191;-80
2023/01/06 11:41:24;;;;;;;1.47;1.37;;;13.80;99.90;;;;;;10310040;28;20247;-81
2023/01/06 11:46:27;;;;;;;1.60;1.50;;;13.90;99.90;;;;;;10337498;28;20227;-80
2023/01/06 11:51:46;;;;;;;2.47;2.30;;;13.90;99.90;;;;;;10369317;28;20217;-80
2023/01/06 11:56:58;;;;;;;2.43;2.33;;;13.90;99.90;;;;;;10355037;28;20201;-80
2023/01/06 12:02:01;;;;;;;1.83;1.77;;;14.00;99.90;;;;;;10356546;28;20250;-80
2023/01/06 12:07:12;;;;;;;2.30;2.20;;;14.00;99.90;;;;;;10329827;28;20617;-80
2023/01/06 12:12:22;;;;;;;5.80;5.30;;;14.00;99.90;;;;;;10332161;28;20210;-80
2023/01/06 12:17:38;;;;;;;2.37;2.27;;;14.00;99.90;;;;;;10331708;28;20571;-80
2023/01/06 12:22:44;;;;;;;2.00;1.90;;;13.90;99.90;;;;;;10314003;28;20230;-79
2023/01/06 12:27:51;;;;;;;2.10;2.00;;;14.00;99.90;;;;;;10349791;28;20471;-80
2023/01/06 12:32:56;;;;;;;2.30;2.20;;;14.00;99.90;;;;;;10340972;28;20757;-80
2023/01/06 12:38:04;;;;;;;2.10;2.00;;;13.90;99.90;;;;;;10336320;28;20224;-80
2023/01/06 12:43:16;;;;;;;1.70;1.70;;;13.90;99.90;;;;;;10323077;28;20211;-80
2023/01/06 12:48:24;;;;;;;1.50;1.40;;;13.80;99.90;;;;;;10325136;28;20195;-80
2023/01/06 12:53:31;;;;;;;2.30;2.20;;;13.70;99.90;;;;;;10306781;28;20672;-79
2023/01/06 12:58:45;;;;;;;2.23;2.13;;;13.70;99.90;;;;;;10325300;28;20828;-80
2023/01/06 13:04:03;;;;;;;2.40;2.30;;;13.60;99.90;;;;;;10323004;28;20322;-79
2023/01/06 13:09:21;;;;;;;2.70;2.60;;;13.60;99.90;;;;;;10316471;28;20253;-79
2023/01/06 13:14:30;;;;;;;2.67;2.57;;;13.60;99.90;;;;;;10298274;28;20306;-80
2023/01/06 13:19:46;;;;;;;19.00;12.00;;;13.60;99.90;;;;;;10321443;28;20208;-79
2023/01/06 13:25:20;;;;;;;6.43;5.17;;;13.60;99.90;;;;;;10317848;28;20220;-80
2023/01/06 13:30:50;;;;;;;3.33;3.13;;;13.70;99.90;;;;;;10304038;28;20188;-81
2023/01/06 13:36:12;;;;;;;2.63;2.53;;;13.70;99.90;;;;;;10326096;28;20255;-80
2023/01/06 13:41:18;;;;;;;5.40;2.60;;;13.70;99.90;;;;;;10313333;28;20746;-79
2023/01/06 13:46:24;;;;;;;3.10;2.90;;;13.60;99.90;;;;;;10333319;28;20198;-81
2023/01/06 13:51:30;;;;;;;2.63;2.43;;;13.60;99.90;;;;;;10347200;28;20211;-80
2023/01/06 13:56:33;;;;;;;3.00;2.80;;;13.60;99.90;;;;;;10334078;28;20659;-81
2023/01/06 14:01:36;;;;;;;2.20;2.10;;;13.50;99.90;;;;;;10322825;28;20687;-80
2023/01/06 14:06:45;;;;;;;2.63;2.53;;;13.50;99.90;;;;;;10341039;28;20598;-80
2023/01/06 14:11:48;;;;;;;3.47;3.27;;;13.40;99.90;;;;;;10328430;28;20274;-80
2023/01/06 14:16:53;;;;;;;3.77;3.47;;;13.40;99.90;;;;;;10344576;28;20257;-81
2023/01/06 14:22:13;;;;;;;5.13;4.73;;;13.50;99.90;;;;;;10341444;28;20227;-81
2023/01/06 14:27:15;;;;;;;3.50;3.20;;;13.50;99.90;;;;;;10337461;28;20199;-80
2023/01/06 14:32:54;;;;;;;4.27;3.97;;;13.40;99.90;;;;;;10340842;28;20298;-80
2023/01/06 14:38:01;;;;;;;2.80;2.70;;;13.40;99.90;;;;;;10332774;28;20222;-80
2023/01/06 14:43:07;;;;;;;2.77;2.60;;;13.40;99.90;;;;;;10316043;28;20480;-81
2023/01/06 14:48:13;;;;;;;4.10;3.90;;;13.40;99.90;;;;;;10336718;28;20282;-80
2023/01/06 14:53:22;;;;;;;3.03;2.93;;;13.40;99.90;;;;;;10337615;28;20222;-80
2023/01/06 14:58:29;;;;;;;4.37;3.00;;;13.30;99.90;;;;;;10342393;28;20223;-81
2023/01/06 15:03:32;;;;;;;3.40;3.00;;;13.30;99.90;;;;;;10325122;28;20226;-81
2023/01/06 15:08:35;;;;;;;2.80;2.60;;;13.30;99.90;;;;;;10339104;28;20206;-81
2023/01/06 15:13:37;;;;;;;2.20;2.10;;;13.30;99.90;;;;;;10334194;28;20265;-80
2023/01/06 15:18:43;;;;;;;3.30;3.10;;;13.30;99.90;;;;;;10358535;28;20211;-80
2023/01/06 15:23:49;;;;;;;3.20;3.00;;;13.30;99.90;;;;;;10328545;28;20271;-81
2023/01/06 15:29:00;;;;;;;3.80;3.60;;;13.20;99.90;;;;;;10352146;28;20271;-81
2023/01/06 15:34:07;;;;;;;3.20;3.00;;;13.20;99.90;;;;;;10341313;28;20713;-80
2023/01/06 15:39:14;;;;;;;2.20;2.10;;;13.20;99.90;;;;;;10353299;28;20206;-81
2023/01/06 15:44:22;;;;;;;3.47;3.17;;;13.20;99.90;;;;;;10342726;28;20210;-81
2023/01/06 15:49:28;;;;;;;3.00;2.87;;;13.10;99.90;;;;;;10347247;28;20280;-80
2023/01/06 15:54:33;;;;;;;3.00;2.90;;;13.10;99.90;;;;;;10368564;28;20700;-80
2023/01/06 15:59:36;;;;;;;3.23;3.03;;;13.10;99.90;;;;;;10359685;28;20675;-81
2023/01/06 16:04:44;;;;;;;2.93;2.83;;;13.10;99.90;;;;;;10367838;28;20249;-80
2023/01/06 16:09:47;;;;;;;3.30;3.10;;;13.10;99.90;;;;;;10341231;28;20199;-81
2023/01/06 16:14:49;;;;;;;3.23;3.03;;;13.00;99.90;;;;;;10329523;28;20224;-79
2023/01/06 16:19:58;;;;;;;3.50;3.30;;;13.00;99.90;;;;;;10368920;28;20245;-81
2023/01/06 16:25:04;;;;;;;6.53;5.20;;;13.00;99.90;;;;;;10357349;28;20273;-80
2023/01/06 16:30:10;;;;;;;8.73;5.83;;;13.00;99.90;;;;;;10339503;28;20187;-81
2023/01/06 16:35:14;;;;;;;4.90;4.60;;;12.90;99.90;;;;;;10355533;28;20223;-80
2023/01/06 16:40:19;;;;;;;5.27;4.87;;;12.90;99.90;;;;;;10358952;28;20222;-80
2023/01/06 16:45:28;;;;;;;16.77;13.80;;;12.90;99.90;;;;;;10355374;28;20219;-81
2023/01/06 16:50:34;;;;;;;6.60;5.97;;;12.80;99.90;;;;;;10327198;28;20294;-79
2023/01/06 16:55:38;;;;;;;6.70;6.00;;;12.80;99.90;;;;;;10356577;28;20226;-79
2023/01/06 17:00:42;;;;;;;9.10;8.33;;;12.70;99.90;;;;;;10369045;28;20222;-80
2023/01/06 17:05:45;;;;;;;26.23;21.40;;;12.70;99.90;;;;;;10353696;28;20215;-80
2023/01/06 17:10:48;;;;;;;22.10;19.80;;;12.70;99.90;;;;;;10357931;28;20214;-80
2023/01/06 17:15:51;;;;;;;6.73;6.13;;;12.60;99.90;;;;;;10352818;28;20195;-80
2023/01/06 17:20:59;;;;;;;93.90;50.10;;;12.60;99.90;;;;;;10356956;28;20199;-80
2023/01/06 17:26:11;;;;;;;8.30;7.50;;;12.60;99.90;;;;;;10367450;28;21256;-80
2023/01/06 17:31:15;;;;;;;7.60;6.90;;;12.50;99.90;;;;;;10332398;28;20703;-81
2023/01/06 17:36:23;;;;;;;13.70;12.50;;;12.50;99.90;;;;;;10334433;28;20232;-80
2023/01/06 17:41:28;;;;;;;7.60;7.00;;;12.50;99.90;;;;;;10353533;28;20214;-82
2023/01/06 17:46:36;;;;;;;8.93;8.13;;;12.40;99.90;;;;;;10333194;28;20207;-81
2023/01/06 17:51:39;;;;;;;10.33;6.80;;;12.40;99.90;;;;;;10321392;28;20294;-80
2023/01/06 17:56:43;;;;;;;8.50;7.80;;;12.40;99.90;;;;;;10340887;28;20203;-82
2023/01/06 18:01:45;;;;;;;6.50;5.63;;;12.40;99.90;;;;;;10326829;28;20742;-82
2023/01/06 18:06:51;;;;;;;6.30;5.90;;;12.30;99.90;;;;;;10322091;28;20641;-82
2023/01/06 18:12:01;;;;;;;9.40;8.40;;;12.30;99.90;;;;;;10321289;28;20782;-82
2023/01/06 18:17:24;;;;;;;7.03;6.43;;;12.30;99.90;;;;;;10329573;28;20249;-82
2023/01/06 18:22:27;;;;;;;13.73;12.63;;;12.30;99.90;;;;;;10350295;28;20215;-82
2023/01/06 18:27:32;;;;;;;10.90;9.80;;;12.30;99.90;;;;;;10337823;28;20198;-82
2023/01/06 18:32:36;;;;;;;10.30;9.30;;;12.20;99.90;;;;;;10372389;28;20242;-83
2023/01/06 18:37:38;;;;;;;8.70;7.97;;;12.10;99.90;;;;;;10358746;28;20239;-82
2023/01/06 18:42:44;;;;;;;10.20;9.30;;;12.10;99.90;;;;;;10361627;28;20222;-82
2023/01/06 18:47:56;;;;;;;8.63;7.93;;;12.10;99.90;;;;;;10367591;28;20567;-82
2023/01/06 18:53:01;;;;;;;8.90;8.13;;;12.10;99.90;;;;;;10324698;28;20238;-81
2023/01/06 18:58:15;;;;;;;6.87;6.27;;;12.10;99.90;;;;;;10316726;28;20199;-81
2023/01/06 19:03:35;;;;;;;6.93;6.33;;;12.10;99.90;;;;;;10334078;28;20713;-81
2023/01/06 19:08:39;;;;;;;6.97;6.17;;;12.20;99.90;;;;;;10343789;28;20227;-82
2023/01/06 19:13:45;;;;;;;10.07;6.67;;;12.20;99.90;;;;;;10371434;28;20247;-81
2023/01/06 19:18:47;;;;;;;7.73;5.77;;;12.20;99.90;;;;;;10384778;28;20194;-81
2023/01/06 19:23:49;;;;;;;5.67;5.27;;;12.20;99.90;;;;;;10346483;28;20679;-81
2023/01/06 19:28:59;;;;;;;5.83;5.43;;;12.10;99.90;;;;;;10375888;28;20221;-81
2023/01/06 19:34:04;;;;;;;5.90;5.40;;;12.10;99.90;;;;;;10349714;28;20250;-82
2023/01/06 19:39:30;;;;;;;6.03;5.63;;;12.10;99.90;;;;;;10325649;28;20199;-81
2023/01/06 19:44:35;;;;;;;7.17;6.57;;;12.20;99.90;;;;;;10366566;28;20215;-81
2023/01/06 19:49:40;;;;;;;9.00;6.67;;;12.10;99.90;;;;;;10345972;28;20299;-80
2023/01/06 19:54:42;;;;;;;6.40;5.90;;;12.20;99.90;;;;;;10340451;28;20215;-82
2023/01/06 19:59:45;;;;;;;7.20;6.50;;;12.10;99.90;;;;;;10325779;28;20210;-82
2023/01/06 20:04:47;;;;;;;6.90;6.30;;;12.10;99.90;;;;;;10342696;28;20211;-81
2023/01/06 20:09:49;;;;;;;7.20;6.50;;;12.10;99.90;;;;;;10326937;28;20246;-81
2023/01/06 20:14:53;;;;;;;9.47;8.50;;;12.10;99.90;;;;;;10342370;28;20225;-82
2023/01/06 20:19:55;;;;;;;8.13;6.63;;;12.00;99.90;;;;;;10339961;28;20195;-81
2023/01/06 20:24:57;;;;;;;7.30;6.70;;;12.10;99.90;;;;;;10341065;28;20247;-81
2023/01/06 20:30:00;;;;;;;7.77;7.10;;;12.10;99.90;;;;;;10343459;28;20219;-81
2023/01/06 20:35:02;;;;;;;7.40;6.80;;;12.20;99.90;;;;;;10346313;28;20288;-81
2023/01/06 20:40:05;;;;;;;5.00;4.70;;;12.20;99.90;;;;;;10347132;28;20199;-81
2023/01/06 20:45:10;;;;;;;4.20;3.90;;;12.20;99.90;;;;;;10342144;28;20219;-82
2023/01/06 20:50:13;;;;;;;3.67;3.47;;;12.30;99.90;;;;;;10343686;28;20215;-82
2023/01/06 20:55:15;;;;;;;4.03;3.83;;;12.30;99.90;;;;;;10351240;28;20226;-81
2023/01/06 21:00:19;;;;;;;3.60;3.30;;;12.30;99.90;;;;;;10361778;28;20195;-82
2023/01/06 21:05:21;;;;;;;3.43;3.17;;;12.30;99.90;;;;;;10348292;28;20219;-83
2023/01/06 21:10:23;;;;;;;4.10;3.80;;;12.30;99.90;;;;;;10347764;28;20329;-84
2023/01/06 21:15:27;;;;;;;3.20;3.00;;;12.30;99.90;;;;;;10348902;28;20215;-84
2023/01/06 21:20:29;;;;;;;3.90;3.70;;;12.30;99.90;;;;;;10330834;28;20195;-82
2023/01/06 21:25:31;;;;;;;4.63;4.33;;;12.30;99.90;;;;;;10364616;28;20235;-81
2023/01/06 21:30:34;;;;;;;4.33;4.00;;;12.30;99.90;;;;;;10374665;28;20276;-81
2023/01/06 21:35:36;;;;;;;3.70;3.50;;;12.40;99.90;;;;;;10365939;28;20227;-80
2023/01/06 21:40:38;;;;;;;3.50;3.30;;;12.40;99.90;;;;;;10347694;28;20191;-81
2023/01/06 21:45:44;;;;;;;3.63;3.37;;;12.40;99.90;;;;;;10364702;28;20211;-81
2023/01/06 21:50:49;;;;;;;3.43;3.23;;;12.40;99.90;;;;;;10347924;28;20250;-81
2023/01/06 21:55:51;;;;;;;4.70;4.30;;;12.40;99.90;;;;;;10338390;28;20202;-80
2023/01/06 22:00:54;;;;;;;3.80;3.60;;;12.40;99.90;;;;;;10348012;28;20278;-80
2023/01/06 22:05:57;;;;;;;3.70;3.50;;;12.40;99.90;;;;;;10338538;28;20301;-80
2023/01/06 22:10:59;;;;;;;5.20;4.70;;;12.40;99.90;;;;;;10340730;28;20217;-80
2023/01/06 22:16:03;;;;;;;5.00;4.60;;;12.40;99.90;;;;;;10330602;28;20197;-80
2023/01/06 22:21:06;;;;;;;4.67;4.30;;;12.40;99.90;;;;;;10343797;28;20227;-80
2023/01/06 22:26:08;;;;;;;4.00;3.63;;;12.30;99.90;;;;;;10341900;28;20199;-81
2023/01/06 22:31:11;;;;;;;3.70;3.50;;;12.20;99.90;;;;;;10357727;28;20290;-81
2023/01/06 22:36:18;;;;;;;4.17;3.87;;;12.20;99.90;;;;;;10329720;28;20682;-82
2023/01/06 22:41:20;;;;;;;5.03;4.63;;;12.20;99.90;;;;;;10331885;28;20222;-81
2023/01/06 22:46:26;;;;;;;4.27;3.97;;;12.20;99.90;;;;;;10338909;28;20261;-81
2023/01/06 22:51:28;;;;;;;4.80;4.40;;;12.20;99.90;;;;;;10348955;28;20263;-81
2023/01/06 22:56:30;;;;;;;4.20;3.87;;;12.20;99.90;;;;;;10359090;28;20298;-81
2023/01/06 23:01:33;;;;;;;3.80;3.40;;;12.10;99.90;;;;;;10333053;28;20230;-81
2023/01/06 23:06:35;;;;;;;4.77;4.30;;;12.10;99.90;;;;;;10358948;28;20217;-81
2023/01/06 23:11:40;;;;;;;4.37;4.07;;;12.20;99.90;;;;;;10357796;28;20254;-81
2023/01/06 23:16:44;;;;;;;4.60;4.17;;;12.20;99.90;;;;;;10359095;28;20191;-82
2023/01/06 23:21:46;;;;;;;3.73;3.53;;;12.20;99.90;;;;;;10359292;28;20214;-81
2023/01/06 23:26:48;;;;;;;3.80;3.60;;;12.20;99.90;;;;;;10361901;28;20270;-81
2023/01/06 23:31:52;;;;;;;3.80;3.50;;;12.20;99.90;;;;;;10343333;28;20223;-82
2023/01/06 23:36:54;;;;;;;3.23;3.10;;;12.10;99.90;;;;;;10356106;28;20225;-80
2023/01/06 23:41:56;;;;;;;3.70;3.50;;;12.10;99.90;;;;;;10359355;28;20239;-81
2023/01/06 23:46:59;;;;;;;3.10;2.90;;;12.10;99.90;;;;;;10346572;28;20245;-80
2023/01/06 23:52:01;;;;;;;3.40;2.90;;;12.00;99.90;;;;;;10354935;28;20298;-80
2023/01/06 23:57:03;;;;;;;3.33;2.60;;;12.00;99.90;;;;;;10340529;28;20664;-80
